This is the latest recevied weather packets stored in our database for station/object KK7MLS-13. If no packets are shown the sender has not sent any weather packets the latest 10 day(s).
| Time | Temp. | Humidity | Pressure | Rain* | Wind** | Luminosity | Snow |
|---|---|---|---|---|---|---|---|
| 1777581722 | 25.56° C | 36% | 1016.9 hPa | 0 mm | - | 587 W/m² | - |
| 1777581421 | 25.56° C | 36% | 1017.2 hPa | 0 mm | - | 481 W/m² | - |
| 1777581121 | 25.56° C | 36% | 1017.3 hPa | 0 mm | - | 449 W/m² | - |
| 1777580816 | 25° C | 40% | 1017.2 hPa | 0 mm | - | 547 W/m² | - |
| 1777580512 | 25° C | 38% | 1017.3 hPa | 0 mm | - | 518 W/m² | - |
| 1777580207 | 24.44° C | 39% | 1017.5 hPa | 0 mm | - | 447 W/m² | - |
| 1777579904 | 24.44° C | 38% | 1017.4 hPa | 0 mm | - | 412 W/m² | - |
| 1777579604 | 25° C | 37% | 1017.4 hPa | 0 mm | - | 369 W/m² | - |
| 1777579298 | 25° C | 36% | 1017.6 hPa | 0 mm | - | 440 W/m² | - |
| 1777578994 | 25° C | 37% | 1017.6 hPa | 0 mm | - | 549 W/m² | - |
| 1777578689 | 25° C | 40% | 1017.6 hPa | 0 mm | - | 596 W/m² | - |
| 1777578388 | 24.44° C | 42% | 1017.7 hPa | 0 mm | - | 668 W/m² | - |
| 1777578084 | 23.89° C | 39% | 1017.8 hPa | 0 mm | - | 577 W/m² | - |
| 1777577780 | 23.33° C | 42% | 1017.9 hPa | 0 mm | - | 526 W/m² | - |
| 1777577477 | 23.33° C | 43% | 1017.9 hPa | 0 mm | - | 393 W/m² | - |
| 1777577174 | 23.33° C | 39% | 1017.9 hPa | 0 mm | - | 290 W/m² | - |
| 1777576870 | 23.33° C | 43% | 1017.9 hPa | 0 mm | - | 448 W/m² | - |
| 1777576569 | 23.89° C | 38% | 1018.1 hPa | 0 mm | - | 443 W/m² | - |
| 1777576265 | 23.33° C | 40% | 1017.9 hPa | 0 mm | - | 512 W/m² | - |
| 1777575962 | 23.33° C | 40% | 1017.9 hPa | 0 mm | - | 487 W/m² | - |
| 1777575658 | 23.33° C | 40% | 1018.1 hPa | 0 mm | - | 490 W/m² | - |
| 1777575353 | 22.78° C | 42% | 1018 hPa | 0 mm | - | 511 W/m² | - |
| 1777575050 | 23.33° C | 43% | 1018.1 hPa | 0 mm | - | 522 W/m² | - |
| 1777574746 | 22.78° C | 43% | 1018.2 hPa | 0 mm | - | 557 W/m² | - |
| 1777574444 | 22.22° C | 44% | 1018 hPa | 0 mm | - | 627 W/m² | - |
* Rain latest hour (hover to see other rain measurements)
** Current wind speed in m/s (hover to see current wind gust speed)